createdAt,value
2022-10-06T00:00:16.192Z,18.57
2022-10-06T00:01:16.277Z,18.65
2022-10-06T00:02:16.217Z,18.54
2022-10-06T00:03:16.181Z,18.62
2022-10-06T00:04:16.183Z,18.52
2022-10-06T00:05:16.182Z,18.52
2022-10-06T00:06:16.177Z,18.48
2022-10-06T00:07:16.182Z,18.57
2022-10-06T00:08:16.180Z,18.63
2022-10-06T00:09:16.202Z,18.69
2022-10-06T00:10:16.179Z,18.65
2022-10-06T00:11:16.177Z,18.62
2022-10-06T00:12:16.184Z,18.60
2022-10-06T00:13:16.178Z,18.67
2022-10-06T00:14:16.183Z,18.57
2022-10-06T00:15:16.183Z,18.55
2022-10-06T00:16:16.230Z,18.65
2022-10-06T00:17:16.176Z,18.55
2022-10-06T00:18:16.177Z,18.63
2022-10-06T00:19:16.175Z,18.55
2022-10-06T00:20:16.179Z,18.55
2022-10-06T00:21:16.173Z,18.63
2022-10-06T00:22:16.188Z,18.69
2022-10-06T00:23:16.181Z,18.60
2022-10-06T00:24:16.179Z,18.58
2022-10-06T00:25:16.198Z,18.57
2022-10-06T00:26:16.174Z,18.58
2022-10-06T00:27:16.174Z,18.66
2022-10-06T00:28:16.314Z,18.60
2022-10-06T00:29:16.176Z,18.58
2022-10-06T00:30:16.497Z,18.54
2022-10-06T00:31:16.255Z,18.54
2022-10-06T00:32:16.172Z,18.65
2022-10-06T00:33:16.173Z,18.55
2022-10-06T00:34:16.177Z,18.52
2022-10-06T00:35:16.173Z,18.50
2022-10-06T00:36:16.171Z,18.54
2022-10-06T00:37:16.171Z,18.52
2022-10-06T00:38:16.175Z,18.54
2022-10-06T00:39:16.169Z,18.54
2022-10-06T00:40:16.176Z,18.51
2022-10-06T00:41:16.228Z,18.54
2022-10-06T00:42:16.172Z,18.45
2022-10-06T00:43:16.167Z,18.50
2022-10-06T00:44:16.165Z,18.45
2022-10-06T00:45:16.164Z,18.47
2022-10-06T00:46:16.214Z,18.54
2022-10-06T00:47:16.174Z,18.55
2022-10-06T00:48:16.178Z,18.42
2022-10-06T00:49:16.167Z,18.50
2022-10-06T00:50:16.166Z,18.42
2022-10-06T00:51:16.166Z,18.50
2022-10-06T00:52:16.170Z,18.58
2022-10-06T00:53:16.165Z,18.52
2022-10-06T00:54:16.169Z,18.57
2022-10-06T00:55:16.165Z,18.66
2022-10-06T00:56:16.172Z,18.57
2022-10-06T00:57:16.184Z,18.65
2022-10-06T00:58:16.168Z,18.78
2022-10-06T00:59:16.164Z,18.84
2022-10-06T01:00:16.166Z,18.84
2022-10-06T01:01:16.181Z,18.81
2022-10-06T01:02:16.237Z,18.75
2022-10-06T01:03:16.160Z,18.84
2022-10-06T01:04:16.161Z,18.87
2022-10-06T01:05:16.163Z,18.99
2022-10-06T01:06:16.165Z,18.88
2022-10-06T01:07:16.161Z,18.88
2022-10-06T01:08:16.165Z,18.99
2022-10-06T01:09:16.162Z,19.02
2022-10-06T01:10:16.159Z,19.06
2022-10-06T01:11:16.161Z,19.22
2022-10-06T01:12:16.162Z,19.21
2022-10-06T01:13:16.230Z,19.19
2022-10-06T01:14:16.162Z,19.28
2022-10-06T01:15:16.158Z,19.29
2022-10-06T01:16:16.243Z,19.29
2022-10-06T01:17:16.154Z,19.28
2022-10-06T01:18:16.157Z,19.29
2022-10-06T01:19:16.158Z,19.28
2022-10-06T01:20:16.161Z,19.32
2022-10-06T01:21:16.158Z,19.36
2022-10-06T01:22:16.156Z,19.56
2022-10-06T01:23:16.155Z,19.56
2022-10-06T01:24:16.158Z,19.54
2022-10-06T01:25:16.152Z,19.40
2022-10-06T01:26:16.485Z,19.56
2022-10-06T01:27:16.155Z,19.54
2022-10-06T01:28:16.229Z,19.61
2022-10-06T01:29:16.188Z,19.50
2022-10-06T01:30:16.157Z,19.54
2022-10-06T01:31:16.223Z,19.55
2022-10-06T01:32:16.155Z,19.46
2022-10-06T01:33:16.149Z,19.48
2022-10-06T01:34:16.156Z,19.56
2022-10-06T01:35:16.149Z,19.63
2022-10-06T01:36:16.150Z,19.58
2022-10-06T01:37:16.149Z,19.65
2022-10-06T01:38:16.149Z,19.58
2022-10-06T01:39:16.151Z,19.50
2022-10-06T01:40:16.154Z,19.48
2022-10-06T01:41:16.173Z,19.54
2022-10-06T01:42:16.154Z,19.51
2022-10-06T01:43:16.152Z,19.54
2022-10-06T01:44:16.152Z,19.62
2022-10-06T01:45:16.227Z,19.59
2022-10-06T01:46:16.241Z,19.69
2022-10-06T01:47:16.151Z,19.71
2022-10-06T01:48:16.150Z,19.54
2022-10-06T01:49:16.153Z,19.68
2022-10-06T01:50:16.146Z,19.66
2022-10-06T01:51:16.179Z,19.66
2022-10-06T01:52:16.148Z,19.58
2022-10-06T01:53:16.144Z,19.58
2022-10-06T01:54:16.148Z,19.56
2022-10-06T01:55:16.144Z,19.65
2022-10-06T01:56:16.145Z,19.51
2022-10-06T01:57:16.144Z,19.48
2022-10-06T01:58:16.148Z,19.58
2022-10-06T01:59:16.144Z,19.51
2022-10-06T02:00:16.145Z,19.56
2022-10-06T02:01:16.335Z,19.59
2022-10-06T02:02:16.144Z,19.58
2022-10-06T02:03:16.146Z,19.43
2022-10-06T02:04:16.204Z,19.51
2022-10-06T02:05:16.145Z,19.54
2022-10-06T02:06:16.192Z,19.43
2022-10-06T02:07:16.144Z,19.44
2022-10-06T02:08:16.149Z,19.33
2022-10-06T02:09:16.144Z,19.28
2022-10-06T02:10:16.138Z,19.36
2022-10-06T02:11:16.140Z,19.41
2022-10-06T02:12:16.148Z,19.33
2022-10-06T02:13:16.138Z,19.32
2022-10-06T02:14:16.148Z,19.29
2022-10-06T02:15:16.137Z,19.40
2022-10-06T02:16:16.230Z,19.47
2022-10-06T02:17:16.180Z,19.43
2022-10-06T02:18:16.178Z,19.41
2022-10-06T02:19:16.141Z,19.31
2022-10-06T02:20:16.142Z,19.22
2022-10-06T02:21:16.144Z,19.21
2022-10-06T02:22:16.140Z,19.28
2022-10-06T02:23:16.140Z,19.25
2022-10-06T02:24:16.142Z,19.21
2022-10-06T02:25:16.142Z,19.26
2022-10-06T02:26:16.145Z,19.25
2022-10-06T02:27:16.144Z,19.25
2022-10-06T02:28:16.189Z,19.18
2022-10-06T02:29:16.137Z,19.19
2022-10-06T02:30:16.141Z,19.16
2022-10-06T02:31:16.197Z,19.14
2022-10-06T02:32:16.152Z,19.11
2022-10-06T02:33:16.236Z,19.14
2022-10-06T02:34:16.141Z,19.22
2022-10-06T02:35:16.134Z,19.25
2022-10-06T02:36:16.139Z,19.11
2022-10-06T02:37:16.140Z,19.11
2022-10-06T02:38:16.140Z,19.22
2022-10-06T02:39:16.136Z,19.06
2022-10-06T02:40:16.138Z,19.00
2022-10-06T02:41:16.155Z,19.22
2022-10-06T02:42:16.138Z,19.28
2022-10-06T02:43:16.134Z,19.29
2022-10-06T02:44:16.143Z,19.23
2022-10-06T02:45:16.137Z,19.39
2022-10-06T02:46:16.191Z,19.40
2022-10-06T02:47:16.134Z,19.31
2022-10-06T02:48:16.242Z,19.46
2022-10-06T02:49:16.152Z,19.32
2022-10-06T02:50:16.138Z,19.37
2022-10-06T02:51:16.134Z,19.28
2022-10-06T02:52:16.141Z,19.31
2022-10-06T02:53:16.137Z,19.28
2022-10-06T02:54:16.140Z,19.26
2022-10-06T02:55:16.137Z,19.29
2022-10-06T02:56:16.246Z,19.31
2022-10-06T02:57:16.128Z,19.39
2022-10-06T02:58:16.145Z,19.29
2022-10-06T02:59:16.131Z,19.23
2022-10-06T03:00:16.136Z,19.29
2022-10-06T03:01:16.231Z,19.29
2022-10-06T03:02:16.261Z,19.28
2022-10-06T03:03:16.144Z,19.23
2022-10-06T03:04:16.144Z,19.32
2022-10-06T03:05:16.176Z,19.26
2022-10-06T03:06:16.152Z,19.28
2022-10-06T03:07:16.133Z,19.28
2022-10-06T03:08:16.132Z,19.23
2022-10-06T03:09:16.127Z,19.19
2022-10-06T03:10:16.135Z,19.14
2022-10-06T03:11:16.126Z,19.10
2022-10-06T03:12:16.131Z,19.22
2022-10-06T03:13:16.125Z,19.18
2022-10-06T03:14:20.737Z,19.21
2022-10-06T03:15:16.126Z,19.10
2022-10-06T03:16:16.149Z,19.22
2022-10-06T03:17:16.127Z,19.19
2022-10-06T03:18:16.128Z,19.18
2022-10-06T03:19:16.126Z,19.29
2022-10-06T03:20:16.131Z,19.28
2022-10-06T03:21:16.144Z,19.29
2022-10-06T03:22:16.133Z,19.28
2022-10-06T03:23:16.128Z,19.26
2022-10-06T03:24:16.128Z,19.29
2022-10-06T03:25:16.125Z,19.32
2022-10-06T03:26:16.123Z,19.29
2022-10-06T03:27:16.123Z,19.43
2022-10-06T03:28:16.228Z,19.43
2022-10-06T03:29:16.120Z,19.37
2022-10-06T03:30:16.128Z,19.41
2022-10-06T03:31:16.204Z,19.41
2022-10-06T03:32:16.125Z,19.46
2022-10-06T03:33:16.125Z,19.55
2022-10-06T03:34:16.120Z,19.50
2022-10-06T03:35:16.123Z,19.48
2022-10-06T03:36:16.124Z,19.50
2022-10-06T03:37:16.139Z,19.56
2022-10-06T03:38:16.120Z,19.63
2022-10-06T03:39:16.125Z,19.54
2022-10-06T03:40:16.124Z,19.55
2022-10-06T03:41:16.130Z,19.61
2022-10-06T03:42:16.122Z,19.68
2022-10-06T03:43:16.124Z,19.65
2022-10-06T03:44:16.126Z,19.56
2022-10-06T03:45:16.203Z,19.66
2022-10-06T03:46:16.187Z,19.66
2022-10-06T03:47:17.431Z,19.63
2022-10-06T03:48:16.120Z,19.71
2022-10-06T03:49:16.117Z,19.69
2022-10-06T03:50:16.119Z,19.65
2022-10-06T03:51:16.123Z,19.69
2022-10-06T03:52:16.116Z,19.71
2022-10-06T03:53:16.142Z,19.73
2022-10-06T03:54:16.117Z,19.71
2022-10-06T03:55:16.116Z,19.69
2022-10-06T03:56:16.121Z,19.69
2022-10-06T03:57:16.115Z,19.69
2022-10-06T03:58:16.116Z,19.74
2022-10-06T03:59:16.118Z,19.76
2022-10-06T04:00:16.117Z,19.66
2022-10-06T04:01:16.205Z,19.69
2022-10-06T04:02:16.166Z,19.54
2022-10-06T04:03:16.118Z,19.56
2022-10-06T04:04:16.118Z,19.54
2022-10-06T04:05:16.117Z,19.55
2022-10-06T04:06:16.125Z,19.50
2022-10-06T04:07:16.115Z,19.39
2022-10-06T04:08:16.119Z,19.44
2022-10-06T04:09:16.248Z,19.33
2022-10-06T04:10:16.118Z,19.44
2022-10-06T04:11:16.118Z,19.55
2022-10-06T04:12:16.114Z,19.50
2022-10-06T04:13:16.113Z,19.56
2022-10-06T04:14:16.116Z,19.46
2022-10-06T04:15:16.115Z,19.47
2022-10-06T04:16:16.179Z,19.40
2022-10-06T04:17:16.116Z,19.54
2022-10-06T04:18:16.115Z,19.59
2022-10-06T04:19:16.120Z,19.43
2022-10-06T04:20:16.142Z,19.50
2022-10-06T04:21:16.112Z,19.59
2022-10-06T04:22:16.112Z,19.46
2022-10-06T04:23:16.119Z,19.59
2022-10-06T04:24:16.111Z,19.54
2022-10-06T04:25:16.138Z,19.65
2022-10-06T04:26:16.110Z,19.55
2022-10-06T04:27:16.125Z,19.61
2022-10-06T04:28:16.160Z,19.62
2022-10-06T04:29:16.116Z,19.56
2022-10-06T04:30:16.109Z,19.61
2022-10-06T04:31:16.187Z,19.65
2022-10-06T04:32:16.110Z,19.68
2022-10-06T04:33:16.113Z,19.69
2022-10-06T04:34:16.108Z,19.78
2022-10-06T04:35:16.116Z,19.68
2022-10-06T04:36:16.114Z,19.71
2022-10-06T04:37:16.110Z,19.47
2022-10-06T04:38:16.107Z,19.63
2022-10-06T04:39:16.111Z,19.54
2022-10-06T04:40:16.113Z,19.51
2022-10-06T04:41:16.137Z,19.51
2022-10-06T04:42:16.110Z,19.54
2022-10-06T04:43:16.108Z,19.43
2022-10-06T04:44:16.108Z,19.48
2022-10-06T04:45:16.112Z,19.54
2022-10-06T04:46:41.386Z,19.48
2022-10-06T04:47:16.110Z,19.40
2022-10-06T04:48:16.105Z,19.65
2022-10-06T04:49:20.039Z,19.71
2022-10-06T04:50:16.112Z,19.69
2022-10-06T04:51:16.105Z,19.87
2022-10-06T04:52:16.104Z,19.87
2022-10-06T04:53:16.109Z,19.84
2022-10-06T04:54:16.107Z,19.81
2022-10-06T04:55:16.112Z,19.74
2022-10-06T04:56:16.107Z,19.87
2022-10-06T04:57:16.137Z,19.96
2022-10-06T04:58:16.103Z,19.78
2022-10-06T04:59:16.119Z,19.78
2022-10-06T05:00:16.105Z,19.80
2022-10-06T05:01:16.200Z,19.84
2022-10-06T05:02:16.184Z,19.86
2022-10-06T05:03:16.105Z,19.74
2022-10-06T05:04:16.103Z,19.73
2022-10-06T05:05:16.102Z,19.73
2022-10-06T05:06:16.106Z,19.76
2022-10-06T05:07:16.105Z,19.86
2022-10-06T05:08:16.104Z,19.83
2022-10-06T05:09:16.158Z,19.81
2022-10-06T05:10:16.102Z,19.86
2022-10-06T05:11:18.153Z,19.92
2022-10-06T05:12:16.121Z,19.86
2022-10-06T05:13:16.123Z,19.91
2022-10-06T05:14:16.098Z,19.88
2022-10-06T05:15:16.103Z,19.83
2022-10-06T05:16:16.202Z,19.73
2022-10-06T05:17:16.100Z,19.73
2022-10-06T05:18:16.098Z,19.71
2022-10-06T05:19:16.098Z,19.80
2022-10-06T05:20:16.101Z,19.78
2022-10-06T05:21:16.103Z,19.81
2022-10-06T05:22:16.097Z,19.74
2022-10-06T05:23:16.102Z,19.81
2022-10-06T05:24:16.101Z,19.74
2022-10-06T05:25:16.101Z,19.71
2022-10-06T05:26:16.099Z,19.80
2022-10-06T05:27:16.095Z,19.76
2022-10-06T05:28:16.150Z,19.73
2022-10-06T05:29:16.130Z,19.68
2022-10-06T05:30:16.099Z,19.69
2022-10-06T05:31:16.143Z,19.63
2022-10-06T05:32:16.099Z,19.73
2022-10-06T05:33:16.099Z,19.88
2022-10-06T05:34:16.099Z,19.88
2022-10-06T05:35:16.095Z,19.83
2022-10-06T05:36:16.095Z,19.74
2022-10-06T05:37:16.096Z,19.73
2022-10-06T05:38:16.095Z,19.63
2022-10-06T05:39:16.097Z,19.68
2022-10-06T05:40:16.100Z,19.74
2022-10-06T05:41:16.095Z,19.68
2022-10-06T05:42:16.097Z,19.69
2022-10-06T05:43:16.099Z,19.71
2022-10-06T05:44:16.100Z,19.74
2022-10-06T05:45:16.132Z,19.73
2022-10-06T05:46:16.179Z,19.69
2022-10-06T05:47:16.098Z,19.73
2022-10-06T05:48:16.096Z,19.66
2022-10-06T05:49:16.094Z,19.68
2022-10-06T05:50:16.094Z,19.65
2022-10-06T05:51:16.097Z,19.56
2022-10-06T05:52:16.090Z,19.62
2022-10-06T05:53:16.091Z,19.71
2022-10-06T05:54:16.094Z,19.68
2022-10-06T05:55:16.104Z,19.66
2022-10-06T05:56:16.100Z,19.66
2022-10-06T05:57:16.094Z,19.56
2022-10-06T05:58:18.498Z,19.63
2022-10-06T05:59:16.092Z,19.65
2022-10-06T06:00:16.103Z,19.61
2022-10-06T06:01:16.187Z,19.65
2022-10-06T06:02:16.201Z,19.78
2022-10-06T06:03:16.100Z,19.63
2022-10-06T06:04:16.090Z,19.55
2022-10-06T06:05:16.097Z,19.51
2022-10-06T06:06:16.094Z,19.61
2022-10-06T06:07:16.093Z,19.56
2022-10-06T06:08:16.093Z,19.40
2022-10-06T06:09:16.090Z,19.51
2022-10-06T06:10:16.093Z,19.55
2022-10-06T06:11:16.106Z,19.47
2022-10-06T06:12:16.090Z,19.40
2022-10-06T06:13:16.091Z,19.31
2022-10-06T06:14:16.092Z,19.28
2022-10-06T06:15:16.092Z,19.28
2022-10-06T06:16:16.159Z,19.28
2022-10-06T06:17:16.121Z,19.14
2022-10-06T06:18:16.090Z,19.16
2022-10-06T06:19:16.092Z,19.16
2022-10-06T06:20:16.091Z,19.13
2022-10-06T06:21:16.088Z,19.07
2022-10-06T06:22:16.088Z,19.11
2022-10-06T06:23:16.091Z,19.16
2022-10-06T06:24:16.087Z,19.31
2022-10-06T06:25:16.110Z,19.28
2022-10-06T06:26:16.088Z,19.39
2022-10-06T06:27:16.087Z,19.37
2022-10-06T06:28:16.166Z,19.44
2022-10-06T06:29:16.109Z,19.39
2022-10-06T06:30:16.088Z,19.28
2022-10-06T06:31:19.893Z,19.28
2022-10-06T06:32:16.095Z,19.41
2022-10-06T06:33:16.132Z,19.41
2022-10-06T06:34:16.087Z,19.58
2022-10-06T06:35:16.090Z,19.50
2022-10-06T06:36:16.085Z,19.61
2022-10-06T06:37:16.086Z,19.62
2022-10-06T06:38:16.086Z,19.41
2022-10-06T06:39:16.089Z,19.44
2022-10-06T06:40:16.091Z,19.28
2022-10-06T06:41:16.085Z,19.26
2022-10-06T06:42:16.088Z,19.55
2022-10-06T06:43:16.087Z,19.54
2022-10-06T06:44:16.087Z,19.41
2022-10-06T06:45:16.087Z,19.44
2022-10-06T06:46:16.254Z,19.40
2022-10-06T06:47:16.088Z,19.47
2022-10-06T06:48:16.082Z,19.65
2022-10-06T06:49:16.109Z,19.50
2022-10-06T06:50:16.086Z,19.69
2022-10-06T06:51:16.085Z,19.69
2022-10-06T06:52:16.082Z,19.69
2022-10-06T06:53:16.352Z,19.74
2022-10-06T06:54:16.085Z,19.68
2022-10-06T06:55:16.083Z,19.69
2022-10-06T06:56:16.083Z,19.86
2022-10-06T06:57:16.083Z,19.74
2022-10-06T06:58:16.078Z,19.77
2022-10-06T06:59:16.079Z,19.86
2022-10-06T07:00:16.088Z,19.84
2022-10-06T07:01:16.151Z,19.81
2022-10-06T07:02:16.131Z,19.66
2022-10-06T07:03:24.127Z,19.77
2022-10-06T07:04:16.084Z,19.76
2022-10-06T07:05:16.104Z,19.86
2022-10-06T07:06:16.082Z,19.88
2022-10-06T07:07:16.077Z,19.80
2022-10-06T07:08:16.077Z,19.84
2022-10-06T07:09:16.077Z,20.01
2022-10-06T07:10:16.077Z,19.92
2022-10-06T07:11:16.076Z,19.99
2022-10-06T07:12:16.094Z,20.05
2022-10-06T07:13:17.357Z,20.13
2022-10-06T07:14:16.087Z,20.16
2022-10-06T07:15:16.080Z,20.17
2022-10-06T07:16:16.117Z,20.35
2022-10-06T07:17:16.080Z,20.26
2022-10-06T07:18:16.093Z,20.29
2022-10-06T07:19:16.078Z,20.38
2022-10-06T07:20:16.085Z,20.18
2022-10-06T07:21:16.105Z,20.17
2022-10-06T07:22:16.074Z,20.21
2022-10-06T07:23:16.079Z,20.14
2022-10-06T07:24:16.078Z,20.32
2022-10-06T07:25:16.075Z,20.38
2022-10-06T07:26:16.078Z,20.57
2022-10-06T07:27:16.081Z,20.87
2022-10-06T07:28:16.130Z,20.72
2022-10-06T07:29:16.081Z,20.89
2022-10-06T07:30:16.077Z,21.27
2022-10-06T07:31:16.135Z,21.35
2022-10-06T07:32:16.077Z,21.49
2022-10-06T07:33:16.074Z,21.71
2022-10-06T07:34:16.083Z,21.86
2022-10-06T07:35:16.077Z,22.05
2022-10-06T07:36:16.081Z,22.00
2022-10-06T07:37:16.100Z,22.27
2022-10-06T07:38:16.078Z,22.40
2022-10-06T07:39:16.080Z,22.25
2022-10-06T07:40:16.077Z,22.02
2022-10-06T07:41:20.315Z,21.58
2022-10-06T07:42:16.075Z,21.58
2022-10-06T07:43:16.082Z,21.61
2022-10-06T07:44:16.081Z,21.90
2022-10-06T07:45:16.076Z,21.80
2022-10-06T07:46:16.227Z,22.12
2022-10-06T07:47:16.082Z,22.39
2022-10-06T07:48:16.077Z,22.15
2022-10-06T07:49:16.081Z,21.88
2022-10-06T07:50:16.076Z,21.68
2022-10-06T07:51:16.078Z,21.94
2022-10-06T07:52:16.077Z,21.77
2022-10-06T07:53:16.112Z,21.83
2022-10-06T07:54:16.080Z,22.27
2022-10-06T07:55:16.081Z,22.39
2022-10-06T07:56:16.077Z,22.57
2022-10-06T07:57:16.080Z,22.58
2022-10-06T07:58:16.080Z,22.42
2022-10-06T07:59:16.081Z,22.39
2022-10-06T08:00:16.090Z,22.09
2022-10-06T08:01:16.206Z,22.17
2022-10-06T08:02:16.179Z,22.30
2022-10-06T08:03:16.158Z,22.24
2022-10-06T08:04:16.087Z,22.21
2022-10-06T08:05:16.084Z,22.20
2022-10-06T08:06:16.085Z,22.21
2022-10-06T08:07:16.083Z,22.10
2022-10-06T08:08:16.088Z,21.90
2022-10-06T08:09:16.114Z,21.99
2022-10-06T08:10:16.096Z,22.15
2022-10-06T08:11:16.095Z,22.45
2022-10-06T08:12:16.093Z,22.43
2022-10-06T08:13:16.088Z,22.46
2022-10-06T08:14:16.086Z,22.24
2022-10-06T08:15:16.091Z,21.90
2022-10-06T08:16:16.177Z,22.37
2022-10-06T08:17:16.089Z,22.75
2022-10-06T08:18:33.686Z,23.05
2022-10-06T08:19:16.099Z,23.20
2022-10-06T08:20:16.091Z,23.23
2022-10-06T08:21:16.090Z,23.75
2022-10-06T08:22:16.096Z,24.28
2022-10-06T08:23:16.093Z,24.52
2022-10-06T08:24:16.096Z,24.81
2022-10-06T08:25:16.624Z,24.78
2022-10-06T08:26:16.098Z,24.87
2022-10-06T08:27:16.099Z,25.00
2022-10-06T08:28:16.148Z,24.39
2022-10-06T08:29:16.104Z,23.83
2022-10-06T08:30:16.102Z,23.80
2022-10-06T08:31:16.186Z,24.35
2022-10-06T08:32:16.104Z,24.67
2022-10-06T08:33:18.148Z,24.85
2022-10-06T08:34:16.124Z,24.65
2022-10-06T08:35:16.109Z,24.32
2022-10-06T08:36:16.113Z,24.58
2022-10-06T08:37:20.285Z,25.23
2022-10-06T08:38:16.114Z,25.27
2022-10-06T08:39:16.113Z,25.20
2022-10-06T08:40:16.122Z,25.60
2022-10-06T08:41:16.134Z,25.57
2022-10-06T08:42:16.122Z,25.70
2022-10-06T08:43:16.123Z,26.07
2022-10-06T08:44:16.129Z,26.12
2022-10-06T08:45:16.133Z,25.90
2022-10-06T08:46:18.737Z,25.97
2022-10-06T08:47:16.131Z,26.07
2022-10-06T08:48:16.140Z,25.72
2022-10-06T08:49:16.136Z,25.20
2022-10-06T08:50:16.139Z,24.88
2022-10-06T08:51:16.141Z,24.65
2022-10-06T08:52:16.144Z,24.65
2022-10-06T08:53:16.423Z,24.67
2022-10-06T08:54:16.148Z,24.71
2022-10-06T08:55:16.148Z,24.91
2022-10-06T08:56:16.162Z,24.98
2022-10-06T08:57:16.195Z,24.83
2022-10-06T08:58:16.163Z,24.96
2022-10-06T08:59:16.169Z,25.27
2022-10-06T09:00:19.564Z,25.14
2022-10-06T09:01:16.202Z,25.14
2022-10-06T09:02:16.206Z,25.18
2022-10-06T09:03:16.186Z,25.24
2022-10-06T09:04:16.190Z,24.69
2022-10-06T09:05:16.197Z,24.31
2022-10-06T09:06:16.196Z,24.13
2022-10-06T09:07:16.205Z,24.22
2022-10-06T09:08:16.209Z,24.73
2022-10-06T09:09:16.206Z,24.78
2022-10-06T09:10:16.214Z,24.65
2022-10-06T09:11:16.217Z,24.30
2022-10-06T09:12:16.226Z,24.27
2022-10-06T09:13:20.974Z,24.87
2022-10-06T09:14:16.233Z,25.40
2022-10-06T09:15:16.238Z,25.83
2022-10-06T09:16:16.290Z,26.18
2022-10-06T09:17:16.257Z,26.80
2022-10-06T09:18:16.269Z,27.28
2022-10-06T09:19:16.263Z,27.27
2022-10-06T09:20:16.265Z,27.74
2022-10-06T09:21:16.275Z,28.02
2022-10-06T09:22:16.282Z,27.92
2022-10-06T09:23:16.305Z,28.48
2022-10-06T09:24:16.316Z,29.08
2022-10-06T09:25:16.303Z,29.09
2022-10-06T09:26:16.310Z,29.60
2022-10-06T09:27:16.319Z,29.49
2022-10-06T09:28:16.416Z,29.95
2022-10-06T09:29:16.426Z,30.16
2022-10-06T09:30:16.344Z,29.87
2022-10-06T09:31:16.445Z,29.64
2022-10-06T09:32:16.365Z,29.45
2022-10-06T09:33:16.374Z,30.00
2022-10-06T09:34:16.387Z,29.94
2022-10-06T09:35:16.400Z,30.22
2022-10-06T09:36:16.404Z,30.32
2022-10-06T09:37:16.413Z,30.61
2022-10-06T09:38:16.425Z,30.45
2022-10-06T09:39:16.439Z,30.53
2022-10-06T09:40:16.444Z,29.73
2022-10-06T09:41:16.461Z,28.95
2022-10-06T09:42:16.475Z,29.06
2022-10-06T09:43:16.481Z,29.68
2022-10-06T09:44:16.498Z,29.65
2022-10-06T09:45:16.523Z,28.44
2022-10-06T09:46:16.521Z,28.48
2022-10-06T09:47:16.530Z,29.08
2022-10-06T09:48:18.151Z,29.42
2022-10-06T09:49:16.551Z,29.80
2022-10-06T09:50:16.563Z,29.30
2022-10-06T09:51:16.580Z,29.05
2022-10-06T09:52:16.587Z,29.92
2022-10-06T09:53:16.609Z,29.94
2022-10-06T09:54:16.615Z,29.98
2022-10-06T09:55:16.624Z,30.72
2022-10-06T09:56:16.639Z,31.62
2022-10-06T09:57:16.645Z,32.30
2022-10-06T09:58:16.655Z,32.74
2022-10-06T09:59:16.666Z,32.57
2022-10-06T10:00:16.797Z,32.93
2022-10-06T10:01:16.762Z,32.32
2022-10-06T10:02:16.710Z,31.63
2022-10-06T10:03:16.757Z,31.70
2022-10-06T10:04:21.258Z,31.81
2022-10-06T10:05:16.748Z,31.56
2022-10-06T10:06:16.756Z,31.35
2022-10-06T10:07:16.769Z,31.39
2022-10-06T10:08:16.788Z,31.68
2022-10-06T10:09:19.052Z,32.19
2022-10-06T10:10:16.809Z,32.69
2022-10-06T10:11:16.824Z,32.78
2022-10-06T10:12:16.835Z,32.52
2022-10-06T10:13:16.844Z,32.10
2022-10-06T10:14:16.864Z,32.29
2022-10-06T10:15:16.879Z,32.29
2022-10-06T10:16:16.920Z,31.91
2022-10-06T10:17:16.917Z,31.80
2022-10-06T10:18:16.909Z,31.84
2022-10-06T10:19:16.922Z,32.18
2022-10-06T10:20:16.933Z,31.99
2022-10-06T10:21:16.948Z,32.29
2022-10-06T10:22:16.957Z,32.50
2022-10-06T10:23:16.971Z,32.70
2022-10-06T10:24:16.985Z,33.18
2022-10-06T10:25:16.996Z,33.47
2022-10-06T10:26:17.010Z,33.69
2022-10-06T10:27:17.020Z,33.57
2022-10-06T10:28:17.134Z,33.35
2022-10-06T10:29:17.048Z,32.66
2022-10-06T10:30:17.061Z,32.78
2022-10-06T10:31:17.103Z,33.23
2022-10-06T10:32:17.084Z,33.19
2022-10-06T10:33:17.195Z,33.06
2022-10-06T10:34:25.065Z,33.71
2022-10-06T10:35:17.124Z,34.10
2022-10-06T10:36:17.125Z,34.44
2022-10-06T10:37:17.139Z,34.52
2022-10-06T10:38:17.150Z,34.77
2022-10-06T10:39:17.162Z,34.59
2022-10-06T10:40:17.177Z,34.88
2022-10-06T10:41:17.186Z,35.09
2022-10-06T10:42:17.259Z,35.09
2022-10-06T10:43:17.212Z,35.29
2022-10-06T10:44:17.222Z,34.59
2022-10-06T10:45:17.231Z,34.99
2022-10-06T10:46:17.303Z,35.38
2022-10-06T10:47:17.253Z,35.26
2022-10-06T10:48:17.263Z,35.22
2022-10-06T10:49:17.298Z,34.99
2022-10-06T10:50:17.286Z,34.62
2022-10-06T10:51:17.296Z,33.56
2022-10-06T10:52:17.308Z,32.50
2022-10-06T10:54:17.331Z,32.30
2022-10-06T10:55:17.341Z,32.97
2022-10-06T10:56:17.348Z,33.65
2022-10-06T10:57:17.358Z,33.95
2022-10-06T10:58:17.373Z,33.90
2022-10-06T10:59:17.379Z,34.15
2022-10-06T11:00:17.390Z,34.44
2022-10-06T11:01:17.454Z,34.97
2022-10-06T11:02:17.523Z,35.02
2022-10-06T11:03:17.419Z,34.42
2022-10-06T11:04:17.436Z,34.37
2022-10-06T11:05:17.473Z,34.78
2022-10-06T11:06:17.451Z,34.66
2022-10-06T11:07:17.463Z,34.92
2022-10-06T11:08:17.474Z,35.03
2022-10-06T11:09:17.477Z,34.46
2022-10-06T11:10:17.487Z,33.18
2022-10-06T11:11:17.496Z,33.07
2022-10-06T11:12:17.504Z,32.85
2022-10-06T11:13:17.518Z,32.69
2022-10-06T11:14:17.528Z,31.88
2022-10-06T11:15:17.535Z,32.99
2022-10-06T11:16:17.593Z,32.78
2022-10-06T11:17:17.551Z,31.85
2022-10-06T11:18:21.425Z,32.22
2022-10-06T11:19:17.571Z,31.39
2022-10-06T11:20:17.575Z,31.26
2022-10-06T11:21:17.602Z,30.70
2022-10-06T11:22:17.603Z,30.37
2022-10-06T11:23:17.601Z,31.10
2022-10-06T11:24:17.613Z,31.29
2022-10-06T11:25:17.614Z,30.97
2022-10-06T11:26:17.631Z,30.99
2022-10-06T11:27:17.635Z,31.34
2022-10-06T11:28:17.736Z,32.07
2022-10-06T11:29:17.657Z,32.89
2022-10-06T11:30:17.660Z,33.63
2022-10-06T11:31:21.986Z,34.09
2022-10-06T11:32:17.680Z,33.57
2022-10-06T11:33:17.682Z,33.97
2022-10-06T11:34:17.694Z,33.75
2022-10-06T11:35:17.698Z,34.09
2022-10-06T11:36:17.707Z,34.22
2022-10-06T11:37:17.734Z,34.56
2022-10-06T11:38:17.724Z,34.50
2022-10-06T11:39:17.729Z,34.39
2022-10-06T11:40:17.744Z,34.58
2022-10-06T11:41:17.746Z,32.93
2022-10-06T11:42:17.776Z,31.56
2022-10-06T11:43:17.760Z,31.41
2022-10-06T11:44:17.770Z,31.26
2022-10-06T11:45:17.773Z,31.69
2022-10-06T11:46:17.847Z,31.09
2022-10-06T11:47:17.789Z,31.20
2022-10-06T11:48:17.792Z,31.20
2022-10-06T11:49:17.805Z,30.65
2022-10-06T11:50:17.810Z,29.87
2022-10-06T11:51:17.826Z,29.79
2022-10-06T11:52:17.832Z,29.41
2022-10-06T11:53:17.853Z,29.39
2022-10-06T11:54:17.836Z,29.95
2022-10-06T11:55:17.851Z,30.45
2022-10-06T11:56:17.875Z,30.95
2022-10-06T11:57:17.853Z,31.91
2022-10-06T11:58:40.753Z,32.13
2022-10-06T11:59:17.869Z,32.30
2022-10-06T12:00:17.882Z,32.11
2022-10-06T12:01:17.887Z,32.23
2022-10-06T12:02:18.056Z,32.23
2022-10-06T12:03:17.911Z,32.15
2022-10-06T12:04:23.445Z,32.32
2022-10-06T12:05:52.391Z,31.95
2022-10-06T12:06:17.914Z,31.54
2022-10-06T12:07:17.918Z,31.51
2022-10-06T12:08:17.928Z,31.78
2022-10-06T12:09:17.957Z,31.76
2022-10-06T12:10:17.938Z,31.95
2022-10-06T12:11:17.940Z,31.93
2022-10-06T12:12:17.948Z,32.03
2022-10-06T12:13:51.297Z,32.29
2022-10-06T12:17:19.703Z,31.70
2022-10-06T12:18:17.987Z,31.86
2022-10-06T12:19:17.987Z,32.25
2022-10-06T12:20:17.992Z,32.51
2022-10-06T12:21:18.001Z,32.77
2022-10-06T12:22:18.001Z,32.88
2022-10-06T12:23:18.007Z,32.85
2022-10-06T12:24:18.017Z,32.14
2022-10-06T12:25:18.055Z,31.39
2022-10-06T12:26:18.023Z,30.51
2022-10-06T12:27:20.724Z,29.51
2022-10-06T12:28:18.093Z,29.21
2022-10-06T12:29:18.038Z,28.93
2022-10-06T12:30:18.047Z,29.00
2022-10-06T12:31:18.633Z,28.93
2022-10-06T12:32:18.058Z,28.64
2022-10-06T12:33:18.054Z,28.55
2022-10-06T12:34:18.061Z,28.54
2022-10-06T12:35:18.073Z,28.52
2022-10-06T12:36:18.073Z,28.07
2022-10-06T12:37:18.078Z,27.82
2022-10-06T12:38:18.080Z,27.65
2022-10-06T12:39:18.088Z,27.78
2022-10-06T12:40:18.091Z,27.93
2022-10-06T12:41:18.124Z,27.77
2022-10-06T12:42:18.098Z,27.85
2022-10-06T12:43:18.117Z,27.77
2022-10-06T12:44:18.112Z,27.96
2022-10-06T12:45:18.116Z,27.97
2022-10-06T12:46:18.179Z,28.07
2022-10-06T12:47:18.123Z,28.17
2022-10-06T12:48:18.127Z,28.14
2022-10-06T12:49:18.129Z,28.07
2022-10-06T12:50:18.130Z,27.90
2022-10-06T12:51:18.136Z,27.77
2022-10-06T12:52:18.149Z,27.82
2022-10-06T12:53:18.145Z,27.74
2022-10-06T12:54:18.154Z,27.67
2022-10-06T12:55:18.155Z,27.66
2022-10-06T12:56:18.159Z,27.60